sensor_id;sensor_type;location;lat;lon;timestamp;temperature;humidity
24408;DHT22;12542;50.924;4.516;2023-02-11T00:00:09;8.50;99.90
24408;DHT22;12542;50.924;4.516;2023-02-11T00:02:35;8.50;99.90
24408;DHT22;12542;50.924;4.516;2023-02-11T00:05:01;8.50;99.90
24408;DHT22;12542;50.924;4.516;2023-02-11T00:07:31;8.40;99.90
24408;DHT22;12542;50.924;4.516;2023-02-11T00:09:57;8.40;99.90
24408;DHT22;12542;50.924;4.516;2023-02-11T00:12:22;8.40;99.90
24408;DHT22;12542;50.924;4.516;2023-02-11T00:14:50;8.30;99.90
24408;DHT22;12542;50.924;4.516;2023-02-11T00:17:15;8.30;99.90
24408;DHT22;12542;50.924;4.516;2023-02-11T00:19:41;8.20;99.90
24408;DHT22;12542;50.924;4.516;2023-02-11T00:22:07;8.20;99.90
24408;DHT22;12542;50.924;4.516;2023-02-11T00:24:35;8.20;99.90
24408;DHT22;12542;50.924;4.516;2023-02-11T00:27:01;8.20;99.90
24408;DHT22;12542;50.924;4.516;2023-02-11T00:29:26;8.20;99.90
24408;DHT22;12542;50.924;4.516;2023-02-11T00:31:52;8.10;99.90
24408;DHT22;12542;50.924;4.516;2023-02-11T00:34:19;8.00;99.90
24408;DHT22;12542;50.924;4.516;2023-02-11T00:36:45;8.10;99.90
24408;DHT22;12542;50.924;4.516;2023-02-11T00:39:10;8.00;99.90
24408;DHT22;12542;50.924;4.516;2023-02-11T00:41:36;8.10;99.90
24408;DHT22;12542;50.924;4.516;2023-02-11T00:44:04;8.10;99.90
24408;DHT22;12542;50.924;4.516;2023-02-11T00:46:30;8.00;99.90
24408;DHT22;12542;50.924;4.516;2023-02-11T00:48:55;8.00;99.90
24408;DHT22;12542;50.924;4.516;2023-02-11T00:51:26;8.00;99.90
24408;DHT22;12542;50.924;4.516;2023-02-11T00:53:52;7.90;99.90
24408;DHT22;12542;50.924;4.516;2023-02-11T00:56:18;8.00;99.90
24408;DHT22;12542;50.924;4.516;2023-02-11T00:58:44;7.90;99.90
24408;DHT22;12542;50.924;4.516;2023-02-11T01:01:11;8.00;99.90
24408;DHT22;12542;50.924;4.516;2023-02-11T01:03:37;8.10;99.90
24408;DHT22;12542;50.924;4.516;2023-02-11T01:06:03;8.00;99.90
24408;DHT22;12542;50.924;4.516;2023-02-11T01:08:29;8.00;99.90
24408;DHT22;12542;50.924;4.516;2023-02-11T01:11:01;8.00;99.90
24408;DHT22;12542;50.924;4.516;2023-02-11T01:13:27;8.00;99.90
24408;DHT22;12542;50.924;4.516;2023-02-11T01:15:54;7.90;99.90
24408;DHT22;12542;50.924;4.516;2023-02-11T01:18:19;7.90;99.90
24408;DHT22;12542;50.924;4.516;2023-02-11T01:20:45;7.80;99.90
24408;DHT22;12542;50.924;4.516;2023-02-11T01:23:11;7.80;99.90
24408;DHT22;12542;50.924;4.516;2023-02-11T01:25:36;7.80;99.90
24408;DHT22;12542;50.924;4.516;2023-02-11T01:28:02;7.80;99.90
24408;DHT22;12542;50.924;4.516;2023-02-11T01:30:28;7.70;99.90
24408;DHT22;12542;50.924;4.516;2023-02-11T01:32:54;7.70;99.90
24408;DHT22;12542;50.924;4.516;2023-02-11T01:35:19;7.70;99.90
24408;DHT22;12542;50.924;4.516;2023-02-11T01:37:45;7.80;99.90
24408;DHT22;12542;50.924;4.516;2023-02-11T01:40:15;7.70;99.90
24408;DHT22;12542;50.924;4.516;2023-02-11T01:42:43;7.60;99.90
24408;DHT22;12542;50.924;4.516;2023-02-11T01:48:13;7.60;99.90
24408;DHT22;12542;50.924;4.516;2023-02-11T01:50:45;7.50;99.90
24408;DHT22;12542;50.924;4.516;2023-02-11T01:53:12;7.50;99.90
24408;DHT22;12542;50.924;4.516;2023-02-11T01:56:05;7.70;99.90
24408;DHT22;12542;50.924;4.516;2023-02-11T01:58:52;7.80;99.90
24408;DHT22;12542;50.924;4.516;2023-02-11T02:01:22;7.90;99.90
24408;DHT22;12542;50.924;4.516;2023-02-11T02:03:51;7.80;99.90
24408;DHT22;12542;50.924;4.516;2023-02-11T02:06:44;7.80;99.90
24408;DHT22;12542;50.924;4.516;2023-02-11T02:09:23;7.90;99.90
24408;DHT22;12542;50.924;4.516;2023-02-11T02:11:50;8.00;99.90
24408;DHT22;12542;50.924;4.516;2023-02-11T02:14:17;7.90;99.90
24408;DHT22;12542;50.924;4.516;2023-02-11T02:16:43;8.00;99.90
24408;DHT22;12542;50.924;4.516;2023-02-11T02:22:16;8.10;99.90
24408;DHT22;12542;50.924;4.516;2023-02-11T02:36:29;8.40;99.90
24408;DHT22;12542;50.924;4.516;2023-02-11T02:39:13;8.40;99.90
24408;DHT22;12542;50.924;4.516;2023-02-11T02:41:42;8.50;99.90
24408;DHT22;12542;50.924;4.516;2023-02-11T02:44:09;8.50;99.90
24408;DHT22;12542;50.924;4.516;2023-02-11T02:46:36;8.50;99.90
24408;DHT22;12542;50.924;4.516;2023-02-11T02:49:02;8.50;99.90
24408;DHT22;12542;50.924;4.516;2023-02-11T02:54:23;8.40;99.90
24408;DHT22;12542;50.924;4.516;2023-02-11T03:02:35;8.60;99.90
24408;DHT22;12542;50.924;4.516;2023-02-11T03:12:57;8.70;99.90
24408;DHT22;12542;50.924;4.516;2023-02-11T03:15:26;8.80;99.90
24408;DHT22;12542;50.924;4.516;2023-02-11T03:17:54;8.80;99.90
24408;DHT22;12542;50.924;4.516;2023-02-11T03:20:22;8.80;99.90
24408;DHT22;12542;50.924;4.516;2023-02-11T03:22:53;8.80;99.90
24408;DHT22;12542;50.924;4.516;2023-02-11T03:25:22;8.70;99.90
24408;DHT22;12542;50.924;4.516;2023-02-11T03:28:07;8.80;99.90
24408;DHT22;12542;50.924;4.516;2023-02-11T03:30:38;8.90;99.90
24408;DHT22;12542;50.924;4.516;2023-02-11T03:33:11;8.90;99.90
24408;DHT22;12542;50.924;4.516;2023-02-11T03:35:42;8.80;99.90
24408;DHT22;12542;50.924;4.516;2023-02-11T03:38:20;8.80;99.90
24408;DHT22;12542;50.924;4.516;2023-02-11T03:40:46;8.80;99.90
24408;DHT22;12542;50.924;4.516;2023-02-11T03:43:29;9.00;99.90
24408;DHT22;12542;50.924;4.516;2023-02-11T03:45:57;9.00;99.90
24408;DHT22;12542;50.924;4.516;2023-02-11T03:50:49;8.90;99.90
24408;DHT22;12542;50.924;4.516;2023-02-11T03:53:17;9.00;99.90
24408;DHT22;12542;50.924;4.516;2023-02-11T03:55:45;9.00;99.90
24408;DHT22;12542;50.924;4.516;2023-02-11T03:58:11;9.00;99.90
24408;DHT22;12542;50.924;4.516;2023-02-11T04:00:39;8.90;99.90
24408;DHT22;12542;50.924;4.516;2023-02-11T04:03:08;8.90;99.90
24408;DHT22;12542;50.924;4.516;2023-02-11T04:05:37;9.00;99.90
24408;DHT22;12542;50.924;4.516;2023-02-11T04:08:04;9.00;99.90
24408;DHT22;12542;50.924;4.516;2023-02-11T04:10:29;9.00;99.90
24408;DHT22;12542;50.924;4.516;2023-02-11T04:12:55;9.00;99.90
24408;DHT22;12542;50.924;4.516;2023-02-11T04:15:21;8.90;99.90
24408;DHT22;12542;50.924;4.516;2023-02-11T04:17:46;8.90;99.90
24408;DHT22;12542;50.924;4.516;2023-02-11T04:20:12;9.00;99.90
24408;DHT22;12542;50.924;4.516;2023-02-11T04:22:38;8.80;99.90
24408;DHT22;12542;50.924;4.516;2023-02-11T04:25:05;8.80;99.90
24408;DHT22;12542;50.924;4.516;2023-02-11T04:27:34;8.80;99.90
24408;DHT22;12542;50.924;4.516;2023-02-11T04:30:00;8.90;99.90
24408;DHT22;12542;50.924;4.516;2023-02-11T04:32:26;8.90;99.90
24408;DHT22;12542;50.924;4.516;2023-02-11T04:34:52;9.00;99.90
24408;DHT22;12542;50.924;4.516;2023-02-11T04:37:19;9.00;99.90
24408;DHT22;12542;50.924;4.516;2023-02-11T04:39:45;8.90;99.90
24408;DHT22;12542;50.924;4.516;2023-02-11T04:42:10;8.90;99.90
24408;DHT22;12542;50.924;4.516;2023-02-11T04:44:36;9.00;99.90
24408;DHT22;12542;50.924;4.516;2023-02-11T04:47:02;8.90;99.90
24408;DHT22;12542;50.924;4.516;2023-02-11T04:49:28;9.00;99.90
24408;DHT22;12542;50.924;4.516;2023-02-11T04:51:56;9.00;99.90
24408;DHT22;12542;50.924;4.516;2023-02-11T04:54:22;9.00;99.90
24408;DHT22;12542;50.924;4.516;2023-02-11T04:56:48;9.10;99.90
24408;DHT22;12542;50.924;4.516;2023-02-11T04:59:14;9.10;99.90
24408;DHT22;12542;50.924;4.516;2023-02-11T05:01:40;9.20;99.90
24408;DHT22;12542;50.924;4.516;2023-02-11T05:04:06;9.20;99.90
24408;DHT22;12542;50.924;4.516;2023-02-11T05:06:31;9.10;99.90
24408;DHT22;12542;50.924;4.516;2023-02-11T05:08:57;9.10;99.90
24408;DHT22;12542;50.924;4.516;2023-02-11T05:11:24;9.20;99.90
24408;DHT22;12542;50.924;4.516;2023-02-11T05:13:50;9.20;99.90
24408;DHT22;12542;50.924;4.516;2023-02-11T05:16:16;9.10;99.90
24408;DHT22;12542;50.924;4.516;2023-02-11T05:18:43;8.90;99.90
24408;DHT22;12542;50.924;4.516;2023-02-11T05:21:12;9.00;99.90
24408;DHT22;12542;50.924;4.516;2023-02-11T05:23:40;9.00;99.90
24408;DHT22;12542;50.924;4.516;2023-02-11T05:26:07;9.10;99.90
24408;DHT22;12542;50.924;4.516;2023-02-11T05:28:33;9.00;99.90
24408;DHT22;12542;50.924;4.516;2023-02-11T05:31:00;9.10;99.90
24408;DHT22;12542;50.924;4.516;2023-02-11T05:33:26;9.10;99.90
24408;DHT22;12542;50.924;4.516;2023-02-11T05:35:58;9.00;99.90
24408;DHT22;12542;50.924;4.516;2023-02-11T05:38:24;9.10;99.90
24408;DHT22;12542;50.924;4.516;2023-02-11T05:40:50;9.10;99.90
24408;DHT22;12542;50.924;4.516;2023-02-11T05:43:15;9.20;99.90
24408;DHT22;12542;50.924;4.516;2023-02-11T05:45:41;9.30;99.90
24408;DHT22;12542;50.924;4.516;2023-02-11T05:48:07;9.20;99.90
24408;DHT22;12542;50.924;4.516;2023-02-11T05:50:32;9.00;99.90
24408;DHT22;12542;50.924;4.516;2023-02-11T05:52:58;9.10;99.90
24408;DHT22;12542;50.924;4.516;2023-02-11T05:55:23;9.20;99.90
24408;DHT22;12542;50.924;4.516;2023-02-11T05:57:49;9.20;99.90
24408;DHT22;12542;50.924;4.516;2023-02-11T06:00:15;9.10;99.90
24408;DHT22;12542;50.924;4.516;2023-02-11T06:02:41;9.00;99.90
24408;DHT22;12542;50.924;4.516;2023-02-11T06:05:08;9.10;99.90
24408;DHT22;12542;50.924;4.516;2023-02-11T06:07:34;9.10;99.90
24408;DHT22;12542;50.924;4.516;2023-02-11T06:09:59;9.00;99.90
24408;DHT22;12542;50.924;4.516;2023-02-11T06:12:25;8.90;99.90
24408;DHT22;12542;50.924;4.516;2023-02-11T06:14:51;8.90;99.90
24408;DHT22;12542;50.924;4.516;2023-02-11T06:17:17;9.00;99.90
24408;DHT22;12542;50.924;4.516;2023-02-11T06:19:43;9.00;99.90
24408;DHT22;12542;50.924;4.516;2023-02-11T06:22:09;8.90;99.90
24408;DHT22;12542;50.924;4.516;2023-02-11T06:24:34;9.00;99.90
24408;DHT22;12542;50.924;4.516;2023-02-11T06:27:02;8.90;99.90
24408;DHT22;12542;50.924;4.516;2023-02-11T06:29:28;9.00;99.90
24408;DHT22;12542;50.924;4.516;2023-02-11T06:31:54;8.90;99.90
24408;DHT22;12542;50.924;4.516;2023-02-11T06:34:19;9.00;99.90
24408;DHT22;12542;50.924;4.516;2023-02-11T06:36:45;9.00;99.90
24408;DHT22;12542;50.924;4.516;2023-02-11T06:39:12;9.00;99.90
24408;DHT22;12542;50.924;4.516;2023-02-11T06:41:38;9.00;99.90
24408;DHT22;12542;50.924;4.516;2023-02-11T06:44:03;9.00;99.90
24408;DHT22;12542;50.924;4.516;2023-02-11T06:46:29;8.90;99.90
24408;DHT22;12542;50.924;4.516;2023-02-11T06:48:55;9.00;99.90
24408;DHT22;12542;50.924;4.516;2023-02-11T06:51:21;9.10;99.90
24408;DHT22;12542;50.924;4.516;2023-02-11T06:53:47;9.10;99.90
24408;DHT22;12542;50.924;4.516;2023-02-11T06:56:16;9.20;99.90
24408;DHT22;12542;50.924;4.516;2023-02-11T06:58:42;9.10;99.90
24408;DHT22;12542;50.924;4.516;2023-02-11T07:01:09;9.10;99.90
24408;DHT22;12542;50.924;4.516;2023-02-11T07:03:38;9.00;99.90
24408;DHT22;12542;50.924;4.516;2023-02-11T07:06:05;9.10;99.90
24408;DHT22;12542;50.924;4.516;2023-02-11T07:08:34;9.10;99.90
24408;DHT22;12542;50.924;4.516;2023-02-11T07:11:00;9.20;99.90
24408;DHT22;12542;50.924;4.516;2023-02-11T07:13:32;9.20;99.90
24408;DHT22;12542;50.924;4.516;2023-02-11T07:15:58;9.20;99.90
24408;DHT22;12542;50.924;4.516;2023-02-11T07:18:23;9.20;99.90
24408;DHT22;12542;50.924;4.516;2023-02-11T07:20:50;9.30;99.90
24408;DHT22;12542;50.924;4.516;2023-02-11T07:23:15;9.30;99.90
24408;DHT22;12542;50.924;4.516;2023-02-11T07:25:41;9.30;99.90
24408;DHT22;12542;50.924;4.516;2023-02-11T07:28:06;9.40;99.90
24408;DHT22;12542;50.924;4.516;2023-02-11T07:30:32;9.40;99.90
24408;DHT22;12542;50.924;4.516;2023-02-11T07:33:00;9.40;99.90
24408;DHT22;12542;50.924;4.516;2023-02-11T07:35:26;9.40;99.90
24408;DHT22;12542;50.924;4.516;2023-02-11T07:37:51;9.40;99.90
24408;DHT22;12542;50.924;4.516;2023-02-11T07:40:17;9.40;99.90
24408;DHT22;12542;50.924;4.516;2023-02-11T07:42:43;9.40;99.90
24408;DHT22;12542;50.924;4.516;2023-02-11T07:45:08;9.50;99.90
24408;DHT22;12542;50.924;4.516;2023-02-11T07:47:34;9.50;99.90
24408;DHT22;12542;50.924;4.516;2023-02-11T07:50:01;9.50;99.90
24408;DHT22;12542;50.924;4.516;2023-02-11T07:52:30;9.60;99.90
24408;DHT22;12542;50.924;4.516;2023-02-11T07:54:56;9.60;99.90
24408;DHT22;12542;50.924;4.516;2023-02-11T07:57:21;9.60;99.90
24408;DHT22;12542;50.924;4.516;2023-02-11T07:59:51;9.60;99.90
24408;DHT22;12542;50.924;4.516;2023-02-11T08:02:17;9.70;99.90
24408;DHT22;12542;50.924;4.516;2023-02-11T08:04:45;9.70;99.90
24408;DHT22;12542;50.924;4.516;2023-02-11T08:07:14;9.80;99.90
24408;DHT22;12542;50.924;4.516;2023-02-11T08:09:40;9.80;99.90
24408;DHT22;12542;50.924;4.516;2023-02-11T08:12:06;9.70;99.90
24408;DHT22;12542;50.924;4.516;2023-02-11T08:14:31;9.70;99.90
24408;DHT22;12542;50.924;4.516;2023-02-11T08:16:57;9.80;99.90
24408;DHT22;12542;50.924;4.516;2023-02-11T08:19:23;9.80;99.90
24408;DHT22;12542;50.924;4.516;2023-02-11T08:21:49;9.80;99.90
24408;DHT22;12542;50.924;4.516;2023-02-11T08:24:15;9.80;99.90
24408;DHT22;12542;50.924;4.516;2023-02-11T08:26:41;9.90;99.90
24408;DHT22;12542;50.924;4.516;2023-02-11T08:29:12;9.80;99.90
24408;DHT22;12542;50.924;4.516;2023-02-11T08:31:40;9.80;99.90
24408;DHT22;12542;50.924;4.516;2023-02-11T08:34:06;9.80;99.90
24408;DHT22;12542;50.924;4.516;2023-02-11T08:36:34;9.70;99.90
24408;DHT22;12542;50.924;4.516;2023-02-11T08:39:04;9.60;99.90
24408;DHT22;12542;50.924;4.516;2023-02-11T08:41:32;9.70;99.90
24408;DHT22;12542;50.924;4.516;2023-02-11T08:43:58;9.80;99.90
24408;DHT22;12542;50.924;4.516;2023-02-11T08:46:24;9.80;99.90
24408;DHT22;12542;50.924;4.516;2023-02-11T08:48:50;10.00;99.90
24408;DHT22;12542;50.924;4.516;2023-02-11T08:51:19;10.00;99.90
24408;DHT22;12542;50.924;4.516;2023-02-11T08:53:45;9.90;99.90
24408;DHT22;12542;50.924;4.516;2023-02-11T08:56:13;9.90;99.90
24408;DHT22;12542;50.924;4.516;2023-02-11T08:58:39;9.80;99.90
24408;DHT22;12542;50.924;4.516;2023-02-11T09:01:14;9.80;99.90
24408;DHT22;12542;50.924;4.516;2023-02-11T09:03:40;9.80;99.90
24408;DHT22;12542;50.924;4.516;2023-02-11T09:06:07;9.80;99.90
24408;DHT22;12542;50.924;4.516;2023-02-11T09:08:37;9.70;99.90
24408;DHT22;12542;50.924;4.516;2023-02-11T09:11:03;9.70;99.90
24408;DHT22;12542;50.924;4.516;2023-02-11T09:13:30;9.80;99.90
24408;DHT22;12542;50.924;4.516;2023-02-11T09:15:57;9.80;99.90
24408;DHT22;12542;50.924;4.516;2023-02-11T09:18:23;9.80;99.90
24408;DHT22;12542;50.924;4.516;2023-02-11T09:20:49;9.90;99.90
24408;DHT22;12542;50.924;4.516;2023-02-11T09:23:14;9.90;99.90
24408;DHT22;12542;50.924;4.516;2023-02-11T09:25:40;10.00;99.90
24408;DHT22;12542;50.924;4.516;2023-02-11T09:28:07;10.00;99.90
24408;DHT22;12542;50.924;4.516;2023-02-11T09:30:34;10.00;99.90
24408;DHT22;12542;50.924;4.516;2023-02-11T09:33:02;10.00;99.90
24408;DHT22;12542;50.924;4.516;2023-02-11T09:35:30;10.00;99.90
24408;DHT22;12542;50.924;4.516;2023-02-11T09:37:57;10.10;99.90
24408;DHT22;12542;50.924;4.516;2023-02-11T09:40:22;10.10;99.90
24408;DHT22;12542;50.924;4.516;2023-02-11T09:43:09;10.00;99.90
24408;DHT22;12542;50.924;4.516;2023-02-11T09:45:36;10.20;99.90
24408;DHT22;12542;50.924;4.516;2023-02-11T09:48:07;10.30;99.90
24408;DHT22;12542;50.924;4.516;2023-02-11T09:50:43;10.30;99.90
24408;DHT22;12542;50.924;4.516;2023-02-11T09:53:26;10.20;99.90
24408;DHT22;12542;50.924;4.516;2023-02-11T09:55:58;10.40;99.90
24408;DHT22;12542;50.924;4.516;2023-02-11T09:58:32;10.40;99.90
24408;DHT22;12542;50.924;4.516;2023-02-11T10:07:14;10.60;99.90
24408;DHT22;12542;50.924;4.516;2023-02-11T10:12:49;10.60;99.90
24408;DHT22;12542;50.924;4.516;2023-02-11T10:24:12;10.80;99.90
24408;DHT22;12542;50.924;4.516;2023-02-11T10:26:39;11.00;99.90
24408;DHT22;12542;50.924;4.516;2023-02-11T10:29:25;10.90;99.90
24408;DHT22;12542;50.924;4.516;2023-02-11T10:31:56;11.10;99.90
24408;DHT22;12542;50.924;4.516;2023-02-11T10:34:22;11.10;99.90
24408;DHT22;12542;50.924;4.516;2023-02-11T10:36:47;11.20;99.90
24408;DHT22;12542;50.924;4.516;2023-02-11T10:39:19;11.20;99.90
24408;DHT22;12542;50.924;4.516;2023-02-11T10:42:08;11.20;99.90
24408;DHT22;12542;50.924;4.516;2023-02-11T10:44:52;11.20;99.90
24408;DHT22;12542;50.924;4.516;2023-02-11T10:47:26;11.20;99.90
24408;DHT22;12542;50.924;4.516;2023-02-11T10:49:53;10.90;99.90
24408;DHT22;12542;50.924;4.516;2023-02-11T10:54:57;11.00;99.90
24408;DHT22;12542;50.924;4.516;2023-02-11T10:57:31;11.10;99.90
24408;DHT22;12542;50.924;4.516;2023-02-11T11:02:42;11.20;99.90
24408;DHT22;12542;50.924;4.516;2023-02-11T11:05:18;11.10;99.90
24408;DHT22;12542;50.924;4.516;2023-02-11T11:07:57;11.20;99.90
24408;DHT22;12542;50.924;4.516;2023-02-11T11:13:33;11.20;99.90
24408;DHT22;12542;50.924;4.516;2023-02-11T11:18:50;11.20;99.90
24408;DHT22;12542;50.924;4.516;2023-02-11T11:21:33;11.20;99.90
24408;DHT22;12542;50.924;4.516;2023-02-11T11:24:01;11.30;99.90
24408;DHT22;12542;50.924;4.516;2023-02-11T11:26:41;11.20;99.90
24408;DHT22;12542;50.924;4.516;2023-02-11T11:29:18;11.20;99.90
24408;DHT22;12542;50.924;4.516;2023-02-11T11:31:53;11.20;99.90
24408;DHT22;12542;50.924;4.516;2023-02-11T11:34:28;11.20;99.90
24408;DHT22;12542;50.924;4.516;2023-02-11T11:36:55;11.20;99.90
24408;DHT22;12542;50.924;4.516;2023-02-11T11:39:28;11.20;99.90
24408;DHT22;12542;50.924;4.516;2023-02-11T11:41:59;11.10;99.90
24408;DHT22;12542;50.924;4.516;2023-02-11T11:44:32;11.30;99.90
24408;DHT22;12542;50.924;4.516;2023-02-11T11:50:10;11.50;99.90
24408;DHT22;12542;50.924;4.516;2023-02-11T11:52:55;11.40;99.90
24408;DHT22;12542;50.924;4.516;2023-02-11T11:57:54;11.30;99.90
24408;DHT22;12542;50.924;4.516;2023-02-11T12:00:25;11.30;99.90
24408;DHT22;12542;50.924;4.516;2023-02-11T12:02:59;11.40;99.90
24408;DHT22;12542;50.924;4.516;2023-02-11T12:16:50;11.60;99.90
24408;DHT22;12542;50.924;4.516;2023-02-11T12:22:25;11.50;99.90
24408;DHT22;12542;50.924;4.516;2023-02-11T12:33:29;11.60;99.90
24408;DHT22;12542;50.924;4.516;2023-02-11T12:45:17;11.50;99.90
24408;DHT22;12542;50.924;4.516;2023-02-11T12:56:28;11.60;99.90
24408;DHT22;12542;50.924;4.516;2023-02-11T12:58:59;11.60;99.90
24408;DHT22;12542;50.924;4.516;2023-02-11T13:01:34;11.70;99.90
24408;DHT22;12542;50.924;4.516;2023-02-11T13:06:44;11.60;99.90
24408;DHT22;12542;50.924;4.516;2023-02-11T13:09:28;11.60;99.90
24408;DHT22;12542;50.924;4.516;2023-02-11T13:11:59;11.60;99.90
24408;DHT22;12542;50.924;4.516;2023-02-11T13:14:51;11.50;99.90
24408;DHT22;12542;50.924;4.516;2023-02-11T13:17:30;11.60;99.90
24408;DHT22;12542;50.924;4.516;2023-02-11T13:20:02;11.60;99.90
24408;DHT22;12542;50.924;4.516;2023-02-11T13:22:43;11.60;99.90
24408;DHT22;12542;50.924;4.516;2023-02-11T13:25:31;11.70;99.90
24408;DHT22;12542;50.924;4.516;2023-02-11T13:28:59;11.70;99.90
24408;DHT22;12542;50.924;4.516;2023-02-11T13:31:04;11.80;99.90
24408;DHT22;12542;50.924;4.516;2023-02-11T13:33:39;11.80;99.90
24408;DHT22;12542;50.924;4.516;2023-02-11T13:38:33;11.90;99.90
24408;DHT22;12542;50.924;4.516;2023-02-11T13:43:33;11.90;99.90
24408;DHT22;12542;50.924;4.516;2023-02-11T13:46:05;12.00;99.90
24408;DHT22;12542;50.924;4.516;2023-02-11T13:48:36;11.90;99.90
24408;DHT22;12542;50.924;4.516;2023-02-11T13:51:08;11.70;99.90
24408;DHT22;12542;50.924;4.516;2023-02-11T13:53:53;11.60;99.90
24408;DHT22;12542;50.924;4.516;2023-02-11T13:56:30;11.80;99.90
24408;DHT22;12542;50.924;4.516;2023-02-11T13:59:02;11.80;99.90
24408;DHT22;12542;50.924;4.516;2023-02-11T14:02:03;11.80;99.90
24408;DHT22;12542;50.924;4.516;2023-02-11T14:08:10;11.90;99.90
24408;DHT22;12542;50.924;4.516;2023-02-11T14:29:15;11.80;99.90
24408;DHT22;12542;50.924;4.516;2023-02-11T14:32:16;11.80;99.90
24408;DHT22;12542;50.924;4.516;2023-02-11T14:35:07;11.80;99.90
24408;DHT22;12542;50.924;4.516;2023-02-11T14:40:30;11.60;99.90
24408;DHT22;12542;50.924;4.516;2023-02-11T14:43:06;11.70;99.90
24408;DHT22;12542;50.924;4.516;2023-02-11T14:45:36;11.70;99.90
24408;DHT22;12542;50.924;4.516;2023-02-11T14:48:14;11.70;99.90
24408;DHT22;12542;50.924;4.516;2023-02-11T14:53:31;11.70;99.90
24408;DHT22;12542;50.924;4.516;2023-02-11T14:55:57;11.60;99.90
24408;DHT22;12542;50.924;4.516;2023-02-11T15:00:58;11.80;99.90
24408;DHT22;12542;50.924;4.516;2023-02-11T15:03:36;11.70;99.90
24408;DHT22;12542;50.924;4.516;2023-02-11T15:09:36;11.50;99.90
24408;DHT22;12542;50.924;4.516;2023-02-11T15:11:39;11.60;99.90
24408;DHT22;12542;50.924;4.516;2023-02-11T15:14:41;11.70;99.90
24408;DHT22;12542;50.924;4.516;2023-02-11T15:17:13;11.70;99.90
24408;DHT22;12542;50.924;4.516;2023-02-11T15:19:44;11.70;99.90
24408;DHT22;12542;50.924;4.516;2023-02-11T15:22:23;11.80;99.90
24408;DHT22;12542;50.924;4.516;2023-02-11T15:25:09;11.80;99.90
24408;DHT22;12542;50.924;4.516;2023-02-11T15:27:40;11.80;99.90
24408;DHT22;12542;50.924;4.516;2023-02-11T15:32:49;11.80;99.90
24408;DHT22;12542;50.924;4.516;2023-02-11T15:35:15;11.70;99.90
24408;DHT22;12542;50.924;4.516;2023-02-11T15:37:43;11.70;99.90
24408;DHT22;12542;50.924;4.516;2023-02-11T15:40:14;11.70;99.90
24408;DHT22;12542;50.924;4.516;2023-02-11T15:43:01;11.70;99.90
24408;DHT22;12542;50.924;4.516;2023-02-11T15:45:51;11.70;99.90
24408;DHT22;12542;50.924;4.516;2023-02-11T15:48:43;11.70;99.90
24408;DHT22;12542;50.924;4.516;2023-02-11T15:51:17;11.80;99.90
24408;DHT22;12542;50.924;4.516;2023-02-11T15:53:49;11.70;99.90
24408;DHT22;12542;50.924;4.516;2023-02-11T15:56:24;11.70;99.90
24408;DHT22;12542;50.924;4.516;2023-02-11T15:58:53;11.70;99.90
24408;DHT22;12542;50.924;4.516;2023-02-11T16:01:31;11.60;99.90
24408;DHT22;12542;50.924;4.516;2023-02-11T16:03:57;11.60;99.90
24408;DHT22;12542;50.924;4.516;2023-02-11T16:06:26;11.60;99.90
24408;DHT22;12542;50.924;4.516;2023-02-11T16:09:20;11.60;99.90
24408;DHT22;12542;50.924;4.516;2023-02-11T16:14:22;11.40;99.90
24408;DHT22;12542;50.924;4.516;2023-02-11T16:16:51;11.50;99.90
24408;DHT22;12542;50.924;4.516;2023-02-11T16:19:19;11.50;99.90
24408;DHT22;12542;50.924;4.516;2023-02-11T16:21:45;11.50;99.90
24408;DHT22;12542;50.924;4.516;2023-02-11T16:24:37;11.50;99.90
24408;DHT22;12542;50.924;4.516;2023-02-11T16:27:07;11.50;99.90
24408;DHT22;12542;50.924;4.516;2023-02-11T16:29:44;11.50;99.90
24408;DHT22;12542;50.924;4.516;2023-02-11T16:32:15;11.50;99.90
24408;DHT22;12542;50.924;4.516;2023-02-11T16:34:42;11.50;99.90
24408;DHT22;12542;50.924;4.516;2023-02-11T16:37:08;11.50;99.90
24408;DHT22;12542;50.924;4.516;2023-02-11T16:39:34;11.40;99.90
24408;DHT22;12542;50.924;4.516;2023-02-11T16:42:00;11.40;99.90
24408;DHT22;12542;50.924;4.516;2023-02-11T16:44:26;11.40;99.90
24408;DHT22;12542;50.924;4.516;2023-02-11T16:46:52;11.40;99.90
24408;DHT22;12542;50.924;4.516;2023-02-11T16:49:30;11.40;99.90
24408;DHT22;12542;50.924;4.516;2023-02-11T16:51:59;11.40;99.90
24408;DHT22;12542;50.924;4.516;2023-02-11T16:54:30;11.40;99.90
24408;DHT22;12542;50.924;4.516;2023-02-11T16:56:56;11.30;99.90
24408;DHT22;12542;50.924;4.516;2023-02-11T16:59:22;11.30;99.90
24408;DHT22;12542;50.924;4.516;2023-02-11T17:01:49;11.30;99.90
24408;DHT22;12542;50.924;4.516;2023-02-11T17:04:22;11.30;99.90
24408;DHT22;12542;50.924;4.516;2023-02-11T17:06:49;11.30;99.90
24408;DHT22;12542;50.924;4.516;2023-02-11T17:09:17;11.10;99.90
24408;DHT22;12542;50.924;4.516;2023-02-11T17:11:43;11.20;99.90
24408;DHT22;12542;50.924;4.516;2023-02-11T17:14:08;11.20;99.90
24408;DHT22;12542;50.924;4.516;2023-02-11T17:16:34;11.20;99.90
24408;DHT22;12542;50.924;4.516;2023-02-11T17:19:02;11.20;99.90
24408;DHT22;12542;50.924;4.516;2023-02-11T17:21:28;11.20;99.90
24408;DHT22;12542;50.924;4.516;2023-02-11T17:23:56;11.20;99.90
24408;DHT22;12542;50.924;4.516;2023-02-11T17:26:22;11.10;99.90
24408;DHT22;12542;50.924;4.516;2023-02-11T17:28:47;11.10;99.90
24408;DHT22;12542;50.924;4.516;2023-02-11T17:31:13;11.20;99.90
24408;DHT22;12542;50.924;4.516;2023-02-11T17:33:39;11.10;99.90
24408;DHT22;12542;50.924;4.516;2023-02-11T17:36:06;11.10;99.90
24408;DHT22;12542;50.924;4.516;2023-02-11T17:38:34;11.10;99.90
24408;DHT22;12542;50.924;4.516;2023-02-11T17:41:01;11.10;99.90
24408;DHT22;12542;50.924;4.516;2023-02-11T17:43:27;11.10;99.90
24408;DHT22;12542;50.924;4.516;2023-02-11T17:45:54;11.10;99.90
24408;DHT22;12542;50.924;4.516;2023-02-11T17:48:19;11.10;99.90
24408;DHT22;12542;50.924;4.516;2023-02-11T17:50:45;11.10;99.90
24408;DHT22;12542;50.924;4.516;2023-02-11T17:53:11;11.10;99.90
24408;DHT22;12542;50.924;4.516;2023-02-11T17:55:36;11.10;99.90
24408;DHT22;12542;50.924;4.516;2023-02-11T17:58:03;11.10;99.90
24408;DHT22;12542;50.924;4.516;2023-02-11T18:00:29;11.10;99.90
24408;DHT22;12542;50.924;4.516;2023-02-11T18:02:55;11.10;99.90
24408;DHT22;12542;50.924;4.516;2023-02-11T18:05:22;11.10;99.90
24408;DHT22;12542;50.924;4.516;2023-02-11T18:07:50;11.10;99.90
24408;DHT22;12542;50.924;4.516;2023-02-11T18:10:16;11.10;99.90
24408;DHT22;12542;50.924;4.516;2023-02-11T18:12:42;11.10;99.90
24408;DHT22;12542;50.924;4.516;2023-02-11T18:15:08;11.10;99.90
24408;DHT22;12542;50.924;4.516;2023-02-11T18:17:33;11.00;99.90
24408;DHT22;12542;50.924;4.516;2023-02-11T18:19:59;11.00;99.90
24408;DHT22;12542;50.924;4.516;2023-02-11T18:22:25;11.00;99.90
24408;DHT22;12542;50.924;4.516;2023-02-11T18:24:52;11.00;99.90
24408;DHT22;12542;50.924;4.516;2023-02-11T18:27:18;11.00;99.90
24408;DHT22;12542;50.924;4.516;2023-02-11T18:29:44;11.00;99.90
24408;DHT22;12542;50.924;4.516;2023-02-11T18:32:10;11.00;99.90